Time;durP1;ratioP1;P1;durP2;ratioP2;P2;SDS_P1;SDS_P2;PMS_P1;PMS_P2;Temp;Humidity;BMP_temperature;BMP_pressure;BME280_temperature;BME280_humidity;BME280_pressure;Samples;Min_cycle;Max_cycle;Signal;HPM_P1;HPM_P2
2022/02/15 00:00:11;;;;;;;7.55;1.20;;;;;;;6.58;89.36;100549.56;5020162;28;20000;-48
2022/02/15 00:02:36;;;;;;;7.90;1.63;;;;;;;6.63;89.21;100554.44;5013503;28;20108;-49
2022/02/15 00:05:02;;;;;;;8.75;1.58;;;;;;;6.61;89.33;100549.25;5028360;28;20076;-48
2022/02/15 00:07:27;;;;;;;8.65;1.50;;;;;;;6.61;89.27;100549.25;5026852;28;20029;-46
2022/02/15 00:09:52;;;;;;;8.20;1.65;;;;;;;6.64;89.19;100556.13;5021484;28;20091;-48
2022/02/15 00:12:18;;;;;;;17.60;1.90;;;;;;;6.65;89.47;100563.97;5027993;28;20076;-49
2022/02/15 00:14:43;;;;;;;8.23;1.48;;;;;;;6.69;89.31;100554.63;5012644;28;20033;-48
2022/02/15 00:17:08;;;;;;;18.88;2.33;;;;;;;6.68;89.33;100552.94;5020892;28;20124;-50
2022/02/15 00:19:34;;;;;;;10.90;1.75;;;;;;;6.68;89.66;100558.28;5021218;28;20037;-48
2022/02/15 00:21:59;;;;;;;10.75;1.95;;;;;;;6.67;89.54;100566.50;5032581;28;20042;-47
2022/02/15 00:24:24;;;;;;;9.63;1.60;;;;;;;6.66;89.47;100559.44;5025212;28;20108;-51
2022/02/15 00:26:50;;;;;;;10.23;1.58;;;;;;;6.63;89.46;100560.59;5013360;28;20376;-49
2022/02/15 00:29:15;;;;;;;9.13;2.05;;;;;;;6.62;89.76;100558.94;5019376;28;20107;-48
2022/02/15 00:31:40;;;;;;;16.90;2.17;;;;;;;6.56;89.65;100564.97;5021011;28;20056;-46
2022/02/15 00:34:06;;;;;;;12.50;2.20;;;;;;;6.52;90.01;100559.06;5021043;28;20041;-49
2022/02/15 00:36:31;;;;;;;17.33;2.53;;;;;;;6.51;89.74;100565.44;5028184;28;20488;-48
2022/02/15 00:38:56;;;;;;;10.70;2.08;;;;;;;6.43;90.09;100569.94;5017978;28;20047;-48
2022/02/15 00:41:23;;;;;;;13.02;2.00;;;;;;;6.37;90.45;100566.03;5024405;28;20439;-48
2022/02/15 00:43:48;;;;;;;14.77;2.05;;;;;;;6.32;90.71;100558.53;5013476;28;20493;-47
2022/02/15 00:46:13;;;;;;;20.10;2.22;;;;;;;6.29;90.88;100566.00;5027748;28;20212;-48
2022/02/15 00:48:39;;;;;;;9.90;2.40;;;;;;;6.24;91.17;100577.19;5024328;28;20029;-49
2022/02/15 00:51:04;;;;;;;8.13;2.15;;;;;;;6.20;91.46;100575.84;5013558;28;20072;-47
2022/02/15 00:53:29;;;;;;;16.25;2.47;;;;;;;6.18;91.15;100583.16;5012882;28;20057;-47
2022/02/15 00:55:55;;;;;;;16.63;2.67;;;;;;;6.17;91.80;100583.34;5025634;28;20033;-49
2022/02/15 00:58:20;;;;;;;18.52;2.53;;;;;;;6.14;91.82;100590.69;5023535;28;20384;-48
2022/02/15 01:00:45;;;;;;;11.05;2.10;;;;;;;6.12;91.88;100587.31;5013417;28;20038;-47
2022/02/15 01:03:11;;;;;;;18.83;2.67;;;;;;;6.13;92.02;100585.47;5013932;28;20034;-46
2022/02/15 01:05:36;;;;;;;16.30;2.20;;;;;;;6.10;92.29;100580.47;5023141;28;20056;-47
2022/02/15 01:08:02;;;;;;;14.73;2.00;;;;;;;6.09;92.51;100584.13;5017389;28;20068;-47
2022/02/15 01:10:27;;;;;;;16.45;2.88;;;;;;;6.09;92.42;100586.81;5021377;28;20112;-47
2022/02/15 01:12:53;;;;;;;14.48;2.53;;;;;;;6.10;92.99;100596.50;5032370;28;20033;-48
2022/02/15 01:15:19;;;;;;;17.80;2.80;;;;;;;6.10;92.82;100597.31;5031652;28;20068;-48
2022/02/15 01:17:45;;;;;;;22.33;3.17;;;;;;;6.14;92.99;100588.00;5032610;28;20038;-47
2022/02/15 01:20:11;;;;;;;16.15;2.70;;;;;;;6.20;93.03;100602.56;5030817;28;20124;-46
2022/02/15 01:22:36;;;;;;;11.60;3.10;;;;;;;6.25;93.08;100607.44;5016771;28;20464;-47
2022/02/15 01:25:02;;;;;;;12.80;2.58;;;;;;;6.27;93.10;100608.94;5017597;28;20057;-47
2022/02/15 01:27:28;;;;;;;19.10;4.18;;;;;;;6.32;92.74;100611.97;5030726;28;20080;-48
2022/02/15 01:29:53;;;;;;;14.48;3.45;;;;;;;6.36;92.86;100613.31;5031265;28;20425;-48
2022/02/15 01:32:18;;;;;;;17.55;2.85;;;;;;;6.42;92.93;100616.34;5022126;28;20033;-47
2022/02/15 01:34:43;;;;;;;13.88;2.97;;;;;;;6.48;93.14;100610.38;5012864;28;20444;-49
2022/02/15 01:37:09;;;;;;;8.85;3.35;;;;;;;6.51;92.60;100618.91;5000181;28;20196;-49
2022/02/15 01:39:34;;;;;;;15.43;3.13;;;;;;;6.53;92.66;100616.06;5026810;28;20260;-47
2022/02/15 01:42:01;;;;;;;15.57;2.97;;;;;;;6.58;92.55;100619.94;5024144;28;20060;-47
2022/02/15 01:44:26;;;;;;;21.23;3.22;;;;;;;6.60;92.49;100617.09;5012347;28;20468;-47
2022/02/15 01:46:51;;;;;;;16.73;3.95;;;;;;;6.60;92.44;100619.75;5028004;28;20044;-50
2022/02/15 01:49:17;;;;;;;17.90;3.60;;;;;;;6.61;92.43;100616.13;5021708;28;20034;-48
2022/02/15 01:51:42;;;;;;;18.40;3.13;;;;;;;6.62;92.11;100620.44;5023620;28;20029;-49
2022/02/15 01:54:07;;;;;;;24.30;3.80;;;;;;;6.62;92.20;100623.13;5024284;28;20029;-47
2022/02/15 01:56:33;;;;;;;25.42;4.45;;;;;;;6.58;91.79;100625.28;5022575;28;20034;-47
2022/02/15 01:58:58;;;;;;;19.52;3.55;;;;;;;6.55;91.52;100625.59;5010308;28;20120;-48
2022/02/15 02:01:24;;;;;;;17.48;3.33;;;;;;;6.50;91.41;100622.59;5010435;28;20025;-47
2022/02/15 02:03:49;;;;;;;21.80;3.55;;;;;;;6.45;91.33;100627.59;5010890;28;20084;-49
2022/02/15 02:06:14;;;;;;;14.45;3.47;;;;;;;6.41;91.66;100622.72;5031218;28;20029;-48
2022/02/15 02:08:40;;;;;;;22.67;3.22;;;;;;;6.37;91.72;100623.03;5031380;28;20447;-48
2022/02/15 02:11:05;;;;;;;28.58;4.22;;;;;;;6.35;91.94;100622.34;5012883;28;20383;-48
2022/02/15 02:13:30;;;;;;;17.10;3.70;;;;;;;6.35;92.15;100616.16;5014445;28;20061;-47
2022/02/15 02:15:56;;;;;;;20.10;4.55;;;;;;;6.33;92.38;100626.19;5012533;28;20436;-46
2022/02/15 02:18:21;;;;;;;27.98;3.65;;;;;;;6.35;92.36;100626.84;5023199;28;20039;-47
2022/02/15 02:20:47;;;;;;;21.38;3.70;;;;;;;6.37;92.53;100619.50;5015192;28;20038;-47
2022/02/15 02:23:15;;;;;;;23.92;3.60;;;;;;;6.40;92.46;100618.34;5028897;28;20025;-47
2022/02/15 02:25:40;;;;;;;20.40;3.92;;;;;;;6.43;92.37;100618.03;5016395;28;20030;-48
2022/02/15 02:28:06;;;;;;;19.70;3.53;;;;;;;6.48;92.54;100631.78;5012516;28;20037;-51
2022/02/15 02:30:31;;;;;;;27.70;5.05;;;;;;;6.48;92.53;100632.59;5017360;28;20454;-48
2022/02/15 02:32:56;;;;;;;20.35;3.50;;;;;;;6.50;92.21;100632.41;5022450;28;20108;-48
2022/02/15 02:35:22;;;;;;;20.70;3.58;;;;;;;6.50;92.25;100641.31;5030132;28;20029;-52
2022/02/15 02:37:48;;;;;;;16.60;3.45;;;;;;;6.52;91.91;100643.81;5025653;28;20041;-48
2022/02/15 02:40:14;;;;;;;25.98;4.50;;;;;;;6.54;92.01;100637.28;5014394;28;20033;-48
2022/02/15 02:42:40;;;;;;;19.77;3.63;;;;;;;6.56;92.11;100637.97;5028336;28;20052;-48
2022/02/15 02:45:09;;;;;;;19.13;3.15;;;;;;;6.55;91.88;100636.28;5029808;28;20109;-51
2022/02/15 02:47:34;;;;;;;17.20;4.10;;;;;;;6.57;91.89;100636.13;5018041;28;20075;-47
2022/02/15 02:49:59;;;;;;;21.00;4.43;;;;;;;6.56;91.71;100643.31;5033838;28;20128;-47
2022/02/15 02:52:25;;;;;;;21.75;3.50;;;;;;;6.59;91.65;100644.84;5030477;28;20072;-49
2022/02/15 02:54:50;;;;;;;20.38;3.72;;;;;;;6.59;91.52;100647.53;5014102;28;20538;-47
2022/02/15 02:57:16;;;;;;;24.40;4.35;;;;;;;6.63;91.77;100645.34;5014358;28;20022;-48
2022/02/15 02:59:43;;;;;;;16.15;4.03;;;;;;;6.62;91.84;100644.50;5030978;28;20377;-48
2022/02/15 03:02:09;;;;;;;18.30;3.38;;;;;;;6.59;91.62;100650.19;5026384;28;20033;-47
2022/02/15 03:04:36;;;;;;;18.23;3.60;;;;;;;6.60;91.59;100657.19;5015235;28;20034;-48
2022/02/15 03:07:01;;;;;;;16.70;3.35;;;;;;;6.59;91.64;100655.53;5018755;28;20033;-48
2022/02/15 03:09:26;;;;;;;23.23;3.53;;;;;;;6.59;91.43;100655.53;5013759;28;20101;-47
2022/02/15 03:11:52;;;;;;;23.40;3.20;;;;;;;6.56;91.23;100656.69;5023169;28;20419;-48
2022/02/15 03:14:17;;;;;;;21.55;4.22;;;;;;;6.59;91.20;100658.22;5031709;28;20031;-48
2022/02/15 03:16:43;;;;;;;17.90;3.65;;;;;;;6.59;91.32;100669.75;5027143;28;20119;-49
2022/02/15 03:19:08;;;;;;;14.40;4.32;;;;;;;6.60;91.52;100668.72;5033097;28;20337;-50
2022/02/15 03:21:33;;;;;;;22.40;3.78;;;;;;;6.58;91.39;100675.22;5029472;28;20446;-46
2022/02/15 03:24:00;;;;;;;25.90;5.72;;;;;;;6.57;91.41;100676.25;5031899;28;20553;-47
2022/02/15 03:26:26;;;;;;;18.75;3.92;;;;;;;6.57;91.50;100677.06;5030966;28;20045;-47
2022/02/15 03:28:51;;;;;;;23.48;4.25;;;;;;;6.55;90.96;100683.56;5032300;28;20048;-48
2022/02/15 03:31:17;;;;;;;22.10;3.63;;;;;;;6.59;91.37;100692.97;5032564;28;20045;-47
2022/02/15 03:33:42;;;;;;;23.63;3.67;;;;;;;6.63;91.45;100693.47;5033143;28;20087;-47
2022/02/15 03:36:07;;;;;;;12.77;3.33;;;;;;;6.64;91.15;100700.53;5029276;28;20483;-48
2022/02/15 03:38:33;;;;;;;28.60;5.03;;;;;;;6.65;91.15;100696.84;5032846;28;20057;-48
2022/02/15 03:43:42;;;;;;;20.08;3.60;;;;;;;6.62;90.98;100703.34;5032942;28;20136;-48
2022/02/15 03:46:07;;;;;;;13.93;2.75;;;;;;;6.63;90.71;100710.34;5031788;28;20558;-47
2022/02/15 03:48:33;;;;;;;21.65;3.15;;;;;;;6.66;90.79;100715.41;5032804;28;20361;-49
2022/02/15 03:50:58;;;;;;;21.48;3.33;;;;;;;6.67;90.70;100717.06;5032257;28;20029;-48
2022/02/15 03:53:24;;;;;;;22.08;3.00;;;;;;;6.68;90.73;100713.41;5033044;28;20057;-48
2022/02/15 03:55:50;;;;;;;22.88;2.80;;;;;;;6.70;90.67;100716.75;5017373;28;20026;-48
2022/02/15 03:58:15;;;;;;;19.63;2.85;;;;;;;6.70;90.43;100721.28;5032786;28;20437;-50
2022/02/15 04:00:41;;;;;;;16.35;2.22;;;;;;;6.65;90.36;100727.09;5032436;28;20029;-47
2022/02/15 04:03:06;;;;;;;24.77;3.95;;;;;;;6.66;90.40;100735.94;5031560;28;20025;-48
2022/02/15 04:05:32;;;;;;;26.58;3.00;;;;;;;6.66;90.48;100731.47;5031932;28;20029;-48
2022/02/15 04:07:57;;;;;;;11.38;2.08;;;;;;;6.64;90.10;100728.09;5032613;28;20069;-48
2022/02/15 04:10:23;;;;;;;20.25;2.65;;;;;;;6.64;90.31;100744.16;5031351;28;20049;-49
2022/02/15 04:12:48;;;;;;;22.15;3.42;;;;;;;6.62;90.17;100734.59;5032896;28;20038;-49
2022/02/15 04:15:14;;;;;;;23.00;3.10;;;;;;;6.63;90.32;100744.28;5030881;28;20026;-51
2022/02/15 04:17:40;;;;;;;20.88;2.05;;;;;;;6.64;89.99;100748.66;5012458;28;20026;-47
2022/02/15 04:20:06;;;;;;;11.70;2.03;;;;;;;6.64;89.94;100760.19;5016873;28;20083;-49
2022/02/15 04:22:31;;;;;;;18.10;2.80;;;;;;;6.64;89.80;100754.00;5032415;28;20084;-49
2022/02/15 04:24:57;;;;;;;21.30;2.75;;;;;;;6.63;89.74;100763.00;5030459;28;20037;-49
2022/02/15 04:27:22;;;;;;;27.33;2.80;;;;;;;6.62;89.87;100762.19;5018324;28;20063;-49
2022/02/15 04:29:47;;;;;;;18.40;2.67;;;;;;;6.62;89.70;100766.69;5031572;28;20056;-48
2022/02/15 04:32:14;;;;;;;25.00;3.05;;;;;;;6.61;89.53;100768.53;5032032;28;20037;-46
2022/02/15 04:34:40;;;;;;;19.02;2.83;;;;;;;6.64;89.28;100770.88;5032465;28;20543;-47
2022/02/15 04:37:05;;;;;;;18.10;2.40;;;;;;;6.64;88.90;100770.88;5031168;28;20167;-47
2022/02/15 04:39:31;;;;;;;20.15;3.28;;;;;;;6.64;88.87;100776.25;5029848;28;20034;-47
2022/02/15 04:41:56;;;;;;;19.67;2.55;;;;;;;6.62;88.81;100772.88;5024875;28;20028;-47
2022/02/15 04:44:21;;;;;;;18.63;2.35;;;;;;;6.65;89.28;100785.94;5012452;28;20132;-46
2022/02/15 04:46:47;;;;;;;13.77;2.50;;;;;;;6.67;89.07;100789.28;5013561;28;20116;-47
2022/02/15 04:49:12;;;;;;;21.92;4.03;;;;;;;6.68;88.90;100788.28;5026492;28;20151;-47
2022/02/15 04:51:37;;;;;;;12.35;1.88;;;;;;;6.63;88.55;100800.44;5031107;28;20029;-47
2022/02/15 04:54:03;;;;;;;20.17;2.78;;;;;;;6.60;87.97;100797.09;5026290;28;20026;-49
2022/02/15 04:56:28;;;;;;;18.35;3.33;;;;;;;6.63;87.98;100798.59;5011810;28;20026;-49
2022/02/15 04:58:53;;;;;;;23.30;2.50;;;;;;;6.63;87.86;100801.28;5026984;28;20579;-48
2022/02/15 05:01:19;;;;;;;16.95;1.85;;;;;;;6.65;87.52;100799.28;5029497;28;20652;-48
2022/02/15 05:03:45;;;;;;;22.65;2.47;;;;;;;6.66;87.29;100806.34;5030788;28;20047;-48
2022/02/15 05:06:10;;;;;;;16.88;3.72;;;;;;;6.62;87.42;100821.00;5030940;28;20113;-47
2022/02/15 05:08:35;;;;;;;21.98;3.70;;;;;;;6.60;87.73;100812.28;5012748;28;20115;-50
2022/02/15 05:11:01;;;;;;;13.95;1.98;;;;;;;6.63;87.55;100820.00;5011639;28;20120;-48
2022/02/15 05:13:26;;;;;;;24.83;2.38;;;;;;;6.63;87.48;100817.31;5030572;28;20034;-49
2022/02/15 05:15:51;;;;;;;20.67;2.55;;;;;;;6.61;87.32;100822.00;5021338;28;20033;-48
2022/02/15 05:18:17;;;;;;;17.17;1.88;;;;;;;6.65;87.43;100820.69;5015308;28;20214;-49
2022/02/15 05:20:42;;;;;;;16.15;2.55;;;;;;;6.65;86.95;100818.00;5013397;28;20030;-48
2022/02/15 05:23:07;;;;;;;25.65;2.60;;;;;;;6.65;87.19;100827.88;5027322;28;20051;-50
2022/02/15 05:25:33;;;;;;;21.63;3.00;;;;;;;6.63;87.09;100822.69;5028384;28;20025;-49
2022/02/15 05:27:59;;;;;;;17.83;2.83;;;;;;;6.61;87.25;100824.69;5027124;28;20061;-48
2022/02/15 05:30:25;;;;;;;25.25;2.10;;;;;;;6.60;87.08;100828.34;5029570;28;20099;-47
2022/02/15 05:32:51;;;;;;;20.58;2.17;;;;;;;6.55;87.24;100831.47;5021720;28;20491;-48
2022/02/15 05:35:16;;;;;;;26.05;3.10;;;;;;;6.53;87.45;100824.59;5020231;28;20018;-51
2022/02/15 05:37:42;;;;;;;19.98;3.33;;;;;;;6.51;86.78;100837.31;5012928;28;20038;-48
2022/02/15 05:40:09;;;;;;;25.08;4.03;;;;;;;6.49;86.83;100840.13;5022073;28;20521;-49
2022/02/15 05:42:34;;;;;;;15.70;2.90;;;;;;;6.50;86.41;100838.28;5031180;28;20037;-47
2022/02/15 05:45:00;;;;;;;16.55;3.45;;;;;;;6.54;86.04;100845.03;5023456;28;20033;-47
2022/02/15 05:47:25;;;;;;;16.80;2.85;;;;;;;6.53;85.95;100837.97;5020863;28;20098;-47
2022/02/15 05:52:34;;;;;;;26.17;3.20;;;;;;;6.59;85.90;100853.41;5025128;28;20155;-47
2022/02/15 05:55:00;;;;;;;26.08;3.47;;;;;;;6.58;86.61;100849.03;5018951;28;20120;-47
2022/02/15 05:57:25;;;;;;;20.40;3.33;;;;;;;6.57;86.80;100848.22;5019926;28;20026;-46
2022/02/15 05:59:50;;;;;;;21.13;3.40;;;;;;;6.58;87.05;100841.03;5021229;28;20079;-47
2022/02/15 06:02:16;;;;;;;20.52;3.33;;;;;;;6.55;87.10;100836.00;5021407;28;20045;-47
2022/02/15 06:04:42;;;;;;;19.15;2.75;;;;;;;6.49;87.53;100841.97;5030027;28;20029;-47
2022/02/15 06:07:07;;;;;;;25.35;3.47;;;;;;;6.43;87.50;100843.44;5025329;28;20030;-47
2022/02/15 06:09:32;;;;;;;25.73;3.25;;;;;;;6.40;87.38;100849.09;5024642;28;20044;-47
2022/02/15 06:11:58;;;;;;;16.52;3.58;;;;;;;6.36;87.24;100848.53;5032127;28;20082;-48
2022/02/15 06:14:23;;;;;;;27.05;3.03;;;;;;;6.30;87.31;100849.16;5015856;28;20388;-47
2022/02/15 06:16:48;;;;;;;22.27;3.08;;;;;;;6.23;87.44;100845.44;5044361;28;20040;-47
2022/02/15 06:19:14;;;;;;;27.33;3.65;;;;;;;6.14;87.70;100852.53;5035284;28;20021;-48
2022/02/15 06:21:39;;;;;;;30.73;3.00;;;;;;;6.06;87.86;100844.44;5030504;28;20026;-47
2022/02/15 06:24:04;;;;;;;23.10;3.75;;;;;;;6.04;88.06;100850.94;5033441;28;20053;-46
2022/02/15 06:26:30;;;;;;;17.38;3.00;;;;;;;6.00;88.28;100847.72;5035227;28;20528;-48
2022/02/15 06:28:55;;;;;;;23.92;3.72;;;;;;;5.96;88.47;100858.88;5034701;28;20032;-47
2022/02/15 06:31:20;;;;;;;23.73;3.17;;;;;;;5.98;88.59;100854.19;5018763;28;20111;-47
2022/02/15 06:33:46;;;;;;;27.98;3.28;;;;;;;5.99;88.07;100855.91;5034950;28;20018;-47
2022/02/15 06:36:11;;;;;;;25.23;3.40;;;;;;;6.00;87.98;100858.41;5016663;28;20400;-47
2022/02/15 06:38:37;;;;;;;20.58;3.25;;;;;;;6.05;88.06;100858.78;5021013;28;20116;-46
2022/02/15 06:41:02;;;;;;;27.38;3.55;;;;;;;6.05;87.82;100861.44;5034816;28;20029;-46
2022/02/15 06:43:27;;;;;;;24.27;3.42;;;;;;;6.08;87.71;100857.63;5033165;28;20029;-48
2022/02/15 06:45:53;;;;;;;21.85;3.20;;;;;;;6.08;87.27;100865.66;5033860;28;20120;-46
2022/02/15 06:48:18;;;;;;;21.83;2.65;;;;;;;6.10;87.67;100864.50;5034737;28;20030;-46
2022/02/15 06:50:43;;;;;;;19.77;3.00;;;;;;;6.10;87.16;100872.53;5033204;28;20053;-48
2022/02/15 06:53:09;;;;;;;23.40;3.10;;;;;;;6.14;87.11;100881.09;5034570;28;20444;-47
2022/02/15 06:55:34;;;;;;;28.80;2.88;;;;;;;6.15;87.46;100872.06;5033902;28;20033;-47
2022/02/15 06:57:59;;;;;;;21.33;2.65;;;;;;;6.19;86.99;100877.94;5015175;28;20102;-48
2022/02/15 07:00:25;;;;;;;25.77;2.65;;;;;;;6.24;87.12;100884.53;5014553;28;20030;-48
2022/02/15 07:02:50;;;;;;;18.55;2.25;;;;;;;6.25;86.99;100899.56;5032227;28;20034;-48
2022/02/15 07:05:15;;;;;;;23.33;2.75;;;;;;;6.27;86.92;100892.25;5034411;28;20036;-47
2022/02/15 07:07:41;;;;;;;22.98;2.88;;;;;;;6.27;86.68;100904.78;5016834;28;20057;-48
2022/02/15 07:10:08;;;;;;;27.55;2.70;;;;;;;6.25;86.62;100910.25;5014021;28;20113;-48
2022/02/15 07:12:34;;;;;;;16.20;3.35;;;;;;;6.20;86.11;100917.88;5013029;28;20022;-49
2022/02/15 07:14:59;;;;;;;21.73;2.75;;;;;;;6.20;86.26;100912.56;5014328;28;20087;-49
2022/02/15 07:17:26;;;;;;;15.90;2.70;;;;;;;6.21;86.55;100921.41;5014175;28;20108;-47
2022/02/15 07:19:52;;;;;;;22.70;3.47;;;;;;;6.24;86.29;100913.06;5014229;28;20041;-48
2022/02/15 07:22:17;;;;;;;19.48;2.47;;;;;;;6.25;86.10;100920.94;5014028;28;20030;-49
2022/02/15 07:24:43;;;;;;;24.25;2.85;;;;;;;6.23;85.38;100928.28;5013449;28;20037;-47
2022/02/15 07:27:08;;;;;;;17.52;2.17;;;;;;;6.25;85.62;100934.31;5013794;28;20366;-48
2022/02/15 07:29:33;;;;;;;15.48;2.63;;;;;;;6.28;85.22;100931.34;5013484;28;20426;-46
2022/02/15 07:31:58;;;;;;;18.45;2.70;;;;;;;6.30;85.02;100940.06;5013363;28;20056;-47
2022/02/15 07:34:24;;;;;;;22.45;3.38;;;;;;;6.27;84.96;100940.34;5023355;28;20472;-47
2022/02/15 07:36:50;;;;;;;23.95;2.90;;;;;;;6.28;84.84;100934.00;5022858;28;20037;-48
2022/02/15 07:39:16;;;;;;;13.88;2.00;;;;;;;6.23;84.29;100938.13;5026877;28;20041;-48
2022/02/15 07:41:41;;;;;;;31.75;3.13;;;;;;;6.27;84.37;100939.53;5033293;28;20033;-48
2022/02/15 07:44:06;;;;;;;20.35;2.58;;;;;;;6.21;84.08;100935.59;5033167;28;20037;-47
2022/02/15 07:46:32;;;;;;;20.83;2.50;;;;;;;6.22;84.57;100945.31;5021098;28;20506;-48
2022/02/15 07:48:57;;;;;;;28.02;2.83;;;;;;;6.34;84.72;100952.09;5033261;28;20170;-47
2022/02/15 07:51:23;;;;;;;13.23;2.38;;;;;;;6.36;84.23;100943.94;5032031;28;20045;-49
2022/02/15 07:53:48;;;;;;;27.45;2.63;;;;;;;6.43;83.68;100937.00;5016281;28;20061;-47
2022/02/15 07:56:13;;;;;;;14.50;2.20;;;;;;;6.44;83.34;100948.53;5014679;28;20084;-46
2022/02/15 07:58:39;;;;;;;24.20;3.47;;;;;;;6.41;83.22;100947.00;5018908;28;20083;-47
2022/02/15 08:01:04;;;;;;;19.65;2.05;;;;;;;6.29;82.83;100951.75;5013988;28;20046;-48
2022/02/15 08:03:30;;;;;;;21.77;2.42;;;;;;;6.30;83.17;100953.41;5013677;28;20029;-46
2022/02/15 08:05:55;;;;;;;26.63;3.03;;;;;;;6.32;83.08;100959.47;5014503;28;20449;-46
2022/02/15 08:08:21;;;;;;;17.45;2.90;;;;;;;6.36;82.40;100963.50;5027966;28;20071;-47
2022/02/15 08:10:47;;;;;;;21.23;2.88;;;;;;;6.40;81.99;100965.84;5023898;28;20091;-47
2022/02/15 08:13:18;;;;;;;17.27;2.50;;;;;;;6.53;81.71;100969.84;5013823;28;20080;-47
2022/02/15 08:15:45;;;;;;;17.10;2.10;;;;;;;6.68;81.04;100947.91;5014734;28;20061;-48
2022/02/15 08:18:10;;;;;;;26.25;2.58;;;;;;;7.04;80.55;100948.72;5013362;28;20535;-46
2022/02/15 08:20:36;;;;;;;16.42;2.33;;;;;;;7.55;79.02;100952.34;5019362;28;20029;-49
2022/02/15 08:23:02;;;;;;;19.10;2.67;;;;;;;8.08;75.82;100953.06;5031310;28;20029;-46
2022/02/15 08:25:28;;;;;;;18.77;2.53;;;;;;;8.73;73.15;100968.50;5020947;28;20071;-47
2022/02/15 08:27:53;;;;;;;15.23;2.30;;;;;;;8.85;71.08;100969.84;5025413;28;20125;-48
2022/02/15 08:30:19;;;;;;;20.83;2.42;;;;;;;8.82;70.90;100970.19;5014101;28;20173;-49
2022/02/15 08:32:45;;;;;;;22.90;2.50;;;;;;;8.30;71.92;100978.47;5013883;28;20044;-47
2022/02/15 08:35:10;;;;;;;20.15;2.50;;;;;;;7.88;73.27;100965.91;5032122;28;20025;-47
2022/02/15 08:37:36;;;;;;;15.65;2.60;;;;;;;7.33;74.78;100972.50;5032934;28;20086;-48
2022/02/15 08:40:04;;;;;;;13.90;2.47;;;;;;;7.26;76.50;100968.75;5031243;28;20045;-46
2022/02/15 08:42:29;;;;;;;21.88;3.05;;;;;;;7.85;73.90;100963.56;5033312;28;20080;-48
2022/02/15 08:44:55;;;;;;;21.20;2.70;;;;;;;8.26;72.72;100974.41;5028823;28;20488;-47
2022/02/15 08:47:24;;;;;;;27.85;3.25;;;;;;;8.34;71.76;100961.03;5027437;28;20037;-47
2022/02/15 08:49:53;;;;;;;22.55;2.35;;;;;;;8.22;72.65;100968.53;5019422;28;20049;-48
2022/02/15 08:52:19;;;;;;;22.02;2.45;;;;;;;8.72;71.39;100961.47;5012842;28;20026;-50
2022/02/15 08:54:46;;;;;;;21.70;3.17;;;;;;;9.27;69.09;100960.75;5012777;28;20069;-48
2022/02/15 08:57:11;;;;;;;18.92;2.78;;;;;;;9.61;67.48;100968.56;5013148;28;20026;-46
2022/02/15 08:59:37;;;;;;;18.95;2.97;;;;;;;9.79;67.35;100971.00;5019193;28;20051;-47
2022/02/15 09:02:03;;;;;;;24.73;3.33;;;;;;;10.15;65.87;100975.91;5031187;28;20034;-46
2022/02/15 09:04:28;;;;;;;22.40;2.97;;;;;;;10.75;64.54;100983.28;5028464;28;21951;-48
2022/02/15 09:06:54;;;;;;;23.42;3.22;;;;;;;10.66;62.67;100970.06;5031214;28;20032;-47
2022/02/15 09:09:20;;;;;;;12.23;2.38;;;;;;;10.34;63.60;100963.88;5029410;28;20029;-46
2022/02/15 09:11:45;;;;;;;19.00;2.40;;;;;;;9.85;65.36;100970.31;5013173;28;20437;-47
2022/02/15 09:14:11;;;;;;;22.35;2.30;;;;;;;9.76;65.85;100963.28;5014000;28;20054;-47
2022/02/15 09:16:36;;;;;;;25.52;2.70;;;;;;;9.61;66.14;100968.56;5032502;28;20431;-46
2022/02/15 09:19:02;;;;;;;18.95;2.50;;;;;;;9.80;65.82;100967.31;5032254;28;20029;-46
2022/02/15 09:21:27;;;;;;;17.98;3.55;;;;;;;10.46;64.01;100962.47;5012937;28;20402;-48
2022/02/15 09:23:53;;;;;;;16.33;2.53;;;;;;;10.74;62.08;100960.09;5012354;28;20037;-49
2022/02/15 09:26:18;;;;;;;17.58;2.22;;;;;;;10.57;61.45;100969.28;5012503;28;20041;-48
2022/02/15 09:28:43;;;;;;;15.85;2.08;;;;;;;10.99;61.69;100962.56;5012360;28;20080;-49
2022/02/15 09:31:09;;;;;;;16.70;2.53;;;;;;;10.85;60.15;100960.66;5026281;28;20048;-47
2022/02/15 09:33:34;;;;;;;15.35;1.95;;;;;;;11.32;58.31;100970.34;5032085;28;20087;-48
2022/02/15 09:36:00;;;;;;;18.80;2.60;;;;;;;10.99;57.65;100959.88;5030925;28;20084;-48
2022/02/15 09:38:25;;;;;;;17.02;2.28;;;;;;;10.28;58.78;100954.69;5020909;28;20474;-49
2022/02/15 09:40:50;;;;;;;13.43;2.33;;;;;;;10.11;60.16;100970.03;5014881;28;20550;-48
2022/02/15 09:43:16;;;;;;;19.23;2.25;;;;;;;9.92;59.88;100970.44;5018565;28;20464;-46
2022/02/15 09:45:45;;;;;;;14.43;1.85;;;;;;;9.57;59.58;100969.06;5031389;28;20029;-47
2022/02/15 09:48:13;;;;;;;13.15;1.48;;;;;;;9.37;60.80;100956.03;5019280;28;20041;-48
2022/02/15 09:50:39;;;;;;;25.20;2.83;;;;;;;9.33;60.88;100959.22;5020313;28;20042;-47
2022/02/15 09:53:04;;;;;;;14.07;1.67;;;;;;;9.77;60.04;100946.16;5014331;28;20559;-48
2022/02/15 09:55:30;;;;;;;13.57;1.73;;;;;;;10.28;58.90;100937.72;5016183;28;20447;-51
2022/02/15 09:57:55;;;;;;;18.77;2.42;;;;;;;10.02;60.41;100932.59;5017255;28;20037;-48
2022/02/15 10:00:23;;;;;;;22.25;3.05;;;;;;;9.62;60.50;100932.59;5035321;28;20075;-48
2022/02/15 10:02:49;;;;;;;;;;;;;;;9.50;62.10;100919.72;5033969;28;20032;-47
2022/02/15 10:05:15;;;;;;;12.57;1.83;;;;;;;9.55;62.10;100922.72;5018732;28;19914;-49
2022/02/15 10:07:49;;;;;;;25.65;2.20;;;;;;;9.51;62.02;100929.47;5015591;28;20072;-47
2022/02/15 10:10:29;;;;;;;13.93;2.05;;;;;;;9.52;61.49;100931.13;5019020;28;20107;-47
2022/02/15 10:13:06;;;;;;;20.90;2.67;;;;;;;9.48;61.98;100924.41;5034834;28;20032;-48
2022/02/15 10:15:37;;;;;;;12.13;2.35;;;;;;;9.38;62.91;100936.22;5032971;28;20017;-48
2022/02/15 10:18:19;;;;;;;19.42;2.42;;;;;;;9.01;62.76;100924.19;5034897;28;20615;-47
2022/02/15 10:20:46;;;;;;;16.27;2.83;;;;;;;9.08;63.72;100918.13;5028595;28;20060;-49
2022/02/15 10:23:16;;;;;;;14.15;2.08;;;;;;;9.23;64.31;100913.75;5018459;28;20484;-47
2022/02/15 10:25:42;;;;;;;12.63;2.30;;;;;;;9.15;64.12;100925.34;5015078;28;20032;-48
2022/02/15 10:28:12;;;;;;;19.25;1.92;;;;;;;8.77;65.17;100937.66;5015526;28;20038;-48
2022/02/15 10:31:07;;;;;;;12.32;1.92;;;;;;;8.68;66.02;100925.22;5014269;28;20041;-49
2022/02/15 10:33:37;;;;;;;14.30;1.90;;;;;;;8.79;65.01;100922.19;5006846;28;20049;-50
2022/02/15 10:36:10;;;;;;;14.15;1.90;;;;;;;9.01;65.85;100929.56;5033962;28;20021;-49
2022/02/15 10:38:41;;;;;;;15.32;1.85;;;;;;;9.13;65.88;100934.56;5032158;28;20444;-50
2022/02/15 10:41:07;;;;;;;19.52;2.35;;;;;;;9.06;65.39;100941.63;5034072;28;20139;-47
2022/02/15 10:43:55;;;;;;;20.35;2.10;;;;;;;8.94;65.90;100950.03;5032322;28;20172;-47
2022/02/15 10:46:26;;;;;;;11.45;1.50;;;;;;;8.92;65.68;100943.16;5034120;28;20056;-48
2022/02/15 10:48:53;;;;;;;21.50;2.60;;;;;;;8.59;66.33;100934.28;5018747;28;20528;-48
2022/02/15 10:51:19;;;;;;;11.75;1.60;;;;;;;8.59;65.73;100940.47;5014564;28;20029;-47
2022/02/15 10:53:44;;;;;;;11.50;1.63;;;;;;;8.61;66.94;100948.34;5018329;28;20046;-49
2022/02/15 10:56:10;;;;;;;16.77;2.10;;;;;;;8.61;66.10;100951.03;5015362;28;20032;-48
2022/02/15 10:58:36;;;;;;;13.23;1.60;;;;;;;8.64;66.16;100935.47;5015649;28;20511;-50
2022/02/15 11:01:04;;;;;;;9.68;1.52;;;;;;;8.89;64.62;100946.19;5021238;28;20041;-48
2022/02/15 11:03:31;;;;;;;13.73;2.22;;;;;;;8.97;65.63;100938.97;5014575;28;20080;-47
2022/02/15 11:05:57;;;;;;;18.17;2.05;;;;;;;8.79;64.76;100924.88;5019404;28;20053;-49
2022/02/15 11:08:23;;;;;;;9.18;1.63;;;;;;;8.87;65.06;100927.56;5031503;28;20040;-47
2022/02/15 11:10:59;;;;;;;17.70;2.08;;;;;;;8.96;65.54;100923.88;5012387;28;20026;-48
2022/02/15 11:13:25;;;;;;;13.88;1.88;;;;;;;8.90;64.43;100918.31;5013352;28;20122;-47
2022/02/15 11:15:52;;;;;;;17.33;2.22;;;;;;;9.01;63.54;100918.84;5032488;28;20543;-48
2022/02/15 11:18:31;;;;;;;9.70;1.58;;;;;;;8.81;63.82;100900.56;5025772;28;20034;-49
2022/02/15 11:20:59;;;;;;;11.88;1.60;;;;;;;8.70;64.33;100905.25;5013479;28;20535;-48
2022/02/15 11:23:29;;;;;;;;;;;;;;;8.62;64.56;100897.22;5024454;28;20071;-49
2022/02/15 11:26:13;;;;;;;10.60;1.40;;;;;;;8.33;65.15;100886.94;5034144;28;19967;-47